Time;durP1;ratioP1;P1;durP2;ratioP2;P2;SDS_P1;SDS_P2;PMS_P1;PMS_P2;Temp;Humidity;BMP_temperature;BMP_pressure;BME280_temperature;BME280_humidity;BME280_pressure;Samples;Min_cycle;Max_cycle;Signal;HPM_P1;HPM_P2
2022/08/17 00:00:50;;;;;;;;;;;23.70;99.90;;;;;;5076978;28;20367;-75
2022/08/17 00:03:19;;;;;;;;;;;23.60;99.90;;;;;;5077119;28;19908;-75
2022/08/17 00:05:48;;;;;;;;;;;23.60;99.90;;;;;;5076803;28;20041;-75
2022/08/17 00:08:15;;;;;;;;;;;23.60;99.90;;;;;;5076966;28;19908;-74
2022/08/17 00:10:41;;;;;;;;;;;23.50;99.90;;;;;;5076970;28;19915;-75
2022/08/17 00:13:14;;;;;;;;;;;23.50;99.90;;;;;;5076847;28;19919;-75
2022/08/17 00:15:39;;;;;;;;;;;23.40;99.90;;;;;;5076594;28;19911;-75
2022/08/17 00:18:05;;;;;;;;;;;23.40;99.90;;;;;;5076848;28;19927;-75
2022/08/17 00:20:31;;;;;;;;;;;23.40;99.90;;;;;;5076749;28;20321;-75
2022/08/17 00:23:07;;;;;;;;;;;23.40;99.90;;;;;;5076816;28;19908;-75
2022/08/17 00:25:33;;;;;;;;;;;23.40;99.90;;;;;;5076602;28;19908;-74
2022/08/17 00:27:59;;;;;;;;;;;23.40;99.90;;;;;;5076467;28;20272;-75
2022/08/17 00:33:15;;;;;;;;;;;23.40;99.90;;;;;;5089179;28;20294;-78
2022/08/17 00:35:41;;;;;;;;;;;23.40;99.90;;;;;;5093287;28;20374;-77
2022/08/17 00:38:08;;;;;;;;;;;23.40;99.90;;;;;;5085648;28;19927;-78
2022/08/17 00:40:42;;;;;;;;;;;23.40;99.90;;;;;;5075864;28;20322;-77
2022/08/17 00:43:12;;;;;;;;;;;23.40;99.90;;;;;;5076496;28;20349;-77
2022/08/17 00:45:38;;;;;;;;;;;23.40;99.90;;;;;;5073593;28;19909;-78
2022/08/17 00:48:03;;;;;;;;;;;23.40;99.90;;;;;;5072967;28;19954;-78
2022/08/17 00:50:29;;;;;;;;;;;23.40;99.90;;;;;;5072914;28;19909;-78
2022/08/17 00:52:55;;;;;;;;;;;23.40;99.90;;;;;;5072655;28;19964;-78
2022/08/17 00:55:22;;;;;;;;;;;23.40;99.90;;;;;;5072785;28;19916;-78
2022/08/17 00:57:50;;;;;;;;;;;23.40;99.90;;;;;;5072541;28;20367;-78
2022/08/17 01:00:25;;;;;;;;;;;23.40;99.90;;;;;;5072722;28;19912;-78
2022/08/17 01:02:53;;;;;;;;;;;23.30;99.90;;;;;;5072514;28;19915;-78
2022/08/17 01:05:22;;;;;;;;;;;23.30;99.90;;;;;;5072087;28;19987;-78
2022/08/17 01:07:49;;;;;;;;;;;23.30;99.90;;;;;;5072293;28;19908;-78
2022/08/17 01:10:16;;;;;;;;;;;23.20;99.90;;;;;;5072007;28;19924;-77
2022/08/17 01:12:42;;;;;;;;;;;23.20;99.90;;;;;;5071628;28;20287;-78
2022/08/17 01:15:08;;;;;;;;;;;23.10;99.90;;;;;;5071990;28;19915;-78
2022/08/17 01:17:34;;;;;;;;;;;23.10;99.90;;;;;;5072106;28;19909;-78
2022/08/17 01:20:00;;;;;;;;;;;23.00;99.90;;;;;;5072077;28;19947;-78
2022/08/17 01:22:26;;;;;;;;;;;23.00;99.90;;;;;;5072351;28;20332;-77
2022/08/17 01:24:55;;;;;;;;;;;22.90;99.90;;;;;;5072116;28;20019;-78
2022/08/17 01:27:21;;;;;;;;;;;22.90;99.90;;;;;;5071990;28;19908;-77
2022/08/17 01:29:48;;;;;;;;;;;22.90;99.90;;;;;;5072159;28;19909;-78
2022/08/17 01:32:14;;;;;;;;;;;22.80;99.90;;;;;;5072183;28;19943;-78
2022/08/17 01:34:40;;;;;;;;;;;22.80;99.90;;;;;;5072061;28;19913;-78
2022/08/17 01:37:06;;;;;;;;;;;22.80;99.90;;;;;;5071329;28;19931;-77
2022/08/17 01:39:34;;;;;;;;;;;22.80;99.90;;;;;;5071856;28;19909;-78
2022/08/17 01:42:04;;;;;;;;;;;22.80;99.90;;;;;;5071985;28;20540;-77
2022/08/17 01:44:30;;;;;;;;;;;22.70;99.90;;;;;;5071990;28;19909;-77
2022/08/17 01:46:56;;;;;;;;;;;22.70;99.90;;;;;;5071598;28;19908;-77
2022/08/17 01:49:22;;;;;;;;;;;22.70;99.90;;;;;;5071839;28;19909;-77
2022/08/17 01:51:47;;;;;;;;;;;22.60;99.90;;;;;;5071478;28;20378;-77
2022/08/17 01:54:14;;;;;;;;;;;22.60;99.90;;;;;;5071626;28;19927;-78
2022/08/17 01:56:43;;;;;;;;;;;22.60;99.90;;;;;;5071086;28;19909;-77
2022/08/17 01:59:09;;;;;;;;;;;22.60;99.90;;;;;;5071138;28;19952;-77
2022/08/17 02:01:35;;;;;;;;;;;22.50;99.90;;;;;;5071160;28;19919;-78
2022/08/17 02:04:01;;;;;;;;;;;22.50;99.90;;;;;;5071071;28;19909;-76
2022/08/17 02:06:28;;;;;;;;;;;22.40;99.90;;;;;;5071134;28;19908;-77
2022/08/17 02:08:54;;;;;;;;;;;22.30;99.90;;;;;;5070921;28;19956;-78
2022/08/17 02:11:20;;;;;;;;;;;22.30;99.90;;;;;;5071554;28;20429;-78
2022/08/17 02:13:47;;;;;;;;;;;22.20;99.90;;;;;;5070516;28;20276;-77
2022/08/17 02:16:13;;;;;;;;;;;22.20;99.90;;;;;;5070498;28;19909;-77
2022/08/17 02:18:38;;;;;;;;;;;22.20;99.90;;;;;;5071448;28;20383;-77
2022/08/17 02:21:05;;;;;;;;;;;22.20;99.90;;;;;;5071369;28;19912;-77
2022/08/17 02:23:33;;;;;;;;;;;22.20;99.90;;;;;;5071123;28;19958;-78
2022/08/17 02:25:59;;;;;;;;;;;22.20;99.90;;;;;;5070481;28;19915;-77
2022/08/17 02:28:27;;;;;;;;;;;22.20;99.90;;;;;;5071136;28;19918;-78
2022/08/17 02:30:53;;;;;;;;;;;22.20;99.90;;;;;;5071405;28;19958;-77
2022/08/17 02:33:18;;;;;;;;;;;22.20;99.90;;;;;;5070642;28;19912;-77
2022/08/17 02:35:44;;;;;;;;;;;22.20;99.90;;;;;;5070697;28;20007;-77
2022/08/17 02:38:09;;;;;;;;;;;22.20;99.90;;;;;;5070596;28;19962;-77
2022/08/17 02:40:36;;;;;;;;;;;22.30;99.90;;;;;;5071029;28;19925;-77
2022/08/17 02:43:02;;;;;;;;;;;22.30;99.90;;;;;;5070978;28;19916;-77
2022/08/17 02:45:28;;;;;;;;;;;22.30;99.90;;;;;;5070832;28;19943;-78
2022/08/17 02:47:54;;;;;;;;;;;22.40;99.90;;;;;;5070706;28;19908;-77
2022/08/17 02:50:20;;;;;;;;;;;22.40;99.90;;;;;;5079731;28;19913;-77
2022/08/17 02:52:46;;;;;;;;;;;22.40;99.90;;;;;;5090691;28;19926;-77
2022/08/17 02:55:23;;;;;;;;;;;22.50;99.90;;;;;;5074559;28;19999;-77
2022/08/17 02:57:49;;;;;;;;;;;22.50;99.90;;;;;;5070412;28;19909;-77
2022/08/17 03:00:19;;;;;;;;;;;22.60;99.90;;;;;;5070801;28;19954;-77
2022/08/17 03:02:45;;;;;;;;;;;22.60;99.90;;;;;;5070703;28;19958;-77
2022/08/17 03:05:12;;;;;;;;;;;22.60;99.90;;;;;;5071475;28;20359;-77
2022/08/17 03:07:37;;;;;;;;;;;22.60;99.90;;;;;;5074667;28;19908;-77
2022/08/17 03:10:04;;;;;;;;;;;22.60;99.90;;;;;;5074831;28;19919;-78
2022/08/17 03:12:31;;;;;;;;;;;22.60;99.90;;;;;;5074456;28;19916;-77
2022/08/17 03:14:57;;;;;;;;;;;22.60;99.90;;;;;;5074431;28;19931;-77
2022/08/17 03:17:23;;;;;;;;;;;22.60;99.90;;;;;;5073830;28;19908;-77
2022/08/17 03:19:48;;;;;;;;;;;22.60;99.90;;;;;;5074511;28;19915;-77
2022/08/17 03:22:14;;;;;;;;;;;22.60;99.90;;;;;;5074647;28;20394;-77
2022/08/17 03:24:39;;;;;;;;;;;22.50;99.90;;;;;;5074399;28;20046;-77
2022/08/17 03:27:05;;;;;;;;;;;22.50;99.90;;;;;;5074201;28;20395;-77
2022/08/17 03:29:30;;;;;;;;;;;22.50;99.90;;;;;;5074276;28;19909;-77
2022/08/17 03:31:56;;;;;;;;;;;22.40;99.90;;;;;;5074349;28;20372;-77
2022/08/17 03:34:22;;;;;;;;;;;22.40;99.90;;;;;;5074432;28;19918;-77
2022/08/17 03:36:47;;;;;;;;;;;22.40;99.90;;;;;;5074027;28;20276;-78
2022/08/17 03:39:13;;;;;;;;;;;22.40;99.90;;;;;;5074291;28;19908;-77
2022/08/17 03:41:38;;;;;;;;;;;22.30;99.90;;;;;;5074331;28;20140;-77
2022/08/17 03:44:04;;;;;;;;;;;22.30;99.90;;;;;;5074480;28;19980;-77
2022/08/17 03:57:27;;;;;;;;;;;22.40;99.90;;;;;;5075250;28;20394;-77
2022/08/17 03:59:53;;;;;;;;;;;22.40;99.90;;;;;;5073379;28;19913;-77
2022/08/17 04:02:24;;;;;;;;;;;22.40;99.90;;;;;;5073709;28;20343;-77
2022/08/17 04:04:51;;;;;;;;;;;22.40;99.90;;;;;;5073534;28;19935;-77
2022/08/17 04:07:20;;;;;;;;;;;22.40;99.90;;;;;;5073316;28;19908;-77
2022/08/17 04:09:46;;;;;;;;;;;22.40;99.90;;;;;;5073872;28;20412;-76
2022/08/17 04:12:13;;;;;;;;;;;22.40;99.90;;;;;;5073704;28;19959;-78
2022/08/17 04:14:39;;;;;;;;;;;22.50;99.90;;;;;;5073599;28;19908;-77
2022/08/17 04:17:05;;;;;;;;;;;22.50;99.90;;;;;;5072138;28;19935;-77
2022/08/17 04:19:31;;;;;;;;;;;22.50;99.90;;;;;;5073382;28;20252;-77
2022/08/17 04:21:59;;;;;;;;;;;22.60;99.90;;;;;;5073193;28;19915;-78
2022/08/17 04:24:26;;;;;;;;;;;22.70;99.90;;;;;;5073583;28;19917;-77
2022/08/17 04:26:51;;;;;;;;;;;22.70;99.90;;;;;;5073278;28;20345;-77
2022/08/17 04:29:17;;;;;;;;;;;22.80;99.90;;;;;;5073734;28;19908;-77
2022/08/17 04:31:43;;;;;;;;;;;22.80;99.90;;;;;;5072875;28;19920;-77
2022/08/17 04:34:09;;;;;;;;;;;22.90;99.90;;;;;;5072060;28;20253;-78
2022/08/17 04:36:34;;;;;;;;;;;23.00;99.90;;;;;;5071942;28;19966;-77
2022/08/17 04:39:00;;;;;;;;;;;23.00;99.90;;;;;;5072159;28;19958;-77
2022/08/17 04:44:10;;;;;;;;;;;23.10;99.90;;;;;;5073666;28;19979;-77
2022/08/17 04:46:36;;;;;;;;;;;23.10;99.90;;;;;;5071679;28;19908;-77
2022/08/17 04:49:04;;;;;;;;;;;23.10;99.90;;;;;;5071913;28;19909;-77
2022/08/17 04:51:35;;;;;;;;;;;23.10;99.90;;;;;;5071819;28;19934;-77
2022/08/17 04:54:02;;;;;;;;;;;23.10;99.90;;;;;;5071868;28;19912;-76
2022/08/17 04:56:28;;;;;;;;;;;23.10;99.90;;;;;;5071491;28;19908;-77
2022/08/17 04:58:56;;;;;;;;;;;23.10;99.90;;;;;;5071798;28;19909;-77
2022/08/17 05:01:23;;;;;;;;;;;23.10;99.90;;;;;;5071657;28;19913;-77
2022/08/17 05:03:49;;;;;;;;;;;23.10;99.90;;;;;;5071791;28;20261;-77
2022/08/17 05:06:14;;;;;;;;;;;23.10;99.90;;;;;;5071258;28;19919;-77
2022/08/17 05:08:40;;;;;;;;;;;23.20;99.90;;;;;;5071609;28;19913;-77
2022/08/17 05:11:06;;;;;;;;;;;23.20;99.90;;;;;;5071547;28;20002;-76
2022/08/17 05:13:31;;;;;;;;;;;23.30;99.90;;;;;;5071508;28;19916;-77
2022/08/17 05:15:58;;;;;;;;;;;23.30;99.90;;;;;;5071244;28;20323;-77
2022/08/17 05:18:24;;;;;;;;;;;23.40;99.90;;;;;;5071333;28;19908;-78
2022/08/17 05:20:50;;;;;;;;;;;23.40;99.90;;;;;;5071466;28;19909;-77
2022/08/17 05:23:17;;;;;;;;;;;23.50;99.90;;;;;;5071352;28;19958;-78
2022/08/17 05:25:44;;;;;;;;;;;23.50;99.90;;;;;;5070491;28;19962;-77
2022/08/17 05:28:10;;;;;;;;;;;23.60;99.90;;;;;;5070654;28;19956;-77
2022/08/17 05:30:37;;;;;;;;;;;23.60;99.90;;;;;;5071408;28;19963;-78
2022/08/17 05:33:05;;;;;;;;;;;23.70;99.90;;;;;;4988497;28;1918847;-78
2022/08/17 05:35:32;;;;;;;;;;;23.70;99.90;;;;;;5071969;28;19954;-78
2022/08/17 05:37:58;;;;;;;;;;;23.70;99.90;;;;;;5071956;28;19908;-77
2022/08/17 05:40:24;;;;;;;;;;;23.80;99.90;;;;;;5071725;28;19992;-77
2022/08/17 05:42:51;;;;;;;;;;;23.80;99.90;;;;;;5071980;28;19916;-77
2022/08/17 05:45:18;;;;;;;;;;;23.90;99.90;;;;;;5071790;28;19912;-78
2022/08/17 05:47:44;;;;;;;;;;;23.80;99.90;;;;;;5071753;28;19916;-77
2022/08/17 05:50:15;;;;;;;;;;;23.70;99.90;;;;;;5072590;28;19916;-77
2022/08/17 05:52:43;;;;;;;;;;;23.60;99.90;;;;;;5071905;28;19962;-78
2022/08/17 05:55:09;;;;;;;;;;;23.50;99.90;;;;;;5071755;28;20404;-77
2022/08/17 05:57:47;;;;;;;;;;;23.40;99.90;;;;;;5071609;28;19919;-78
2022/08/17 06:00:33;;;;;;;;;;;23.30;99.90;;;;;;5071485;28;20003;-78
2022/08/17 06:03:14;;;;;;;;;;;23.30;99.90;;;;;;5050353;28;19944;-78
2022/08/17 06:05:39;;;;;;;;;;;23.40;99.90;;;;;;5071409;28;19909;-78
2022/08/17 06:08:14;;;;;;;;;;;23.50;99.90;;;;;;5071242;28;19919;-78
2022/08/17 06:10:39;;;;;;;;;;;23.60;99.90;;;;;;5071541;28;20325;-78
2022/08/17 06:13:20;;;;;;;;;;;23.70;99.90;;;;;;5071189;28;19917;-78
2022/08/17 06:15:46;;;;;;;;;;;23.80;99.90;;;;;;5071010;28;20363;-78
2022/08/17 06:18:12;;;;;;;;;;;23.90;99.90;;;;;;5070901;28;19909;-78
2022/08/17 06:20:43;;;;;;;;;;;23.90;99.90;;;;;;5071344;28;19958;-78
2022/08/17 06:23:11;;;;;;;;;;;24.00;99.90;;;;;;5071173;28;19909;-78
2022/08/17 06:25:41;;;;;;;;;;;24.10;99.90;;;;;;5071116;28;20332;-78
2022/08/17 06:28:08;;;;;;;;;;;24.20;99.90;;;;;;5070980;28;19913;-77
2022/08/17 06:31:00;;;;;;;;;;;24.30;99.90;;;;;;5070723;28;20378;-78
2022/08/17 06:33:31;;;;;;;;;;;24.40;99.90;;;;;;5068386;28;19975;-78
2022/08/17 06:36:05;;;;;;;;;;;24.40;99.90;;;;;;5070964;28;19946;-78
2022/08/17 06:38:32;;;;;;;;;;;24.50;99.90;;;;;;5070963;28;19909;-78
2022/08/17 06:41:01;;;;;;;;;;;24.40;99.90;;;;;;5070308;28;20331;-78
2022/08/17 06:43:26;;;;;;;;;;;24.30;99.90;;;;;;5071007;28;19915;-78
2022/08/17 06:45:56;;;;;;;;;;;24.40;99.90;;;;;;5071146;28;19908;-78
2022/08/17 06:48:24;;;;;;;;;;;24.50;99.90;;;;;;5070701;28;19912;-77
2022/08/17 06:50:54;;;;;;;;;;;24.60;99.90;;;;;;5071081;28;19908;-77
2022/08/17 06:53:20;;;;;;;;;;;24.70;99.90;;;;;;5070837;28;20472;-77
2022/08/17 06:55:51;;;;;;;;;;;24.80;99.90;;;;;;5070501;28;19915;-77
2022/08/17 06:58:20;;;;;;;;;;;24.90;99.90;;;;;;5070838;28;19959;-77
2022/08/17 07:00:46;;;;;;;;;;;25.00;99.90;;;;;;5070975;28;20011;-76
2022/08/17 07:03:12;;;;;;;;;;;25.10;99.90;;;;;;5070932;28;20382;-77
2022/08/17 07:05:42;;;;;;;;;;;25.30;99.90;;;;;;5070529;28;19959;-77
2022/08/17 07:08:21;;;;;;;;;;;25.40;99.90;;;;;;5070575;28;19909;-77
2022/08/17 07:10:53;;;;;;;;;;;25.40;99.90;;;;;;5070865;28;20290;-77
2022/08/17 07:13:19;;;;;;;;;;;25.50;99.90;;;;;;5070796;28;19912;-78
2022/08/17 07:15:46;;;;;;;;;;;25.60;99.90;;;;;;5071107;28;19919;-77
2022/08/17 07:18:11;;;;;;;;;;;25.80;99.90;;;;;;5071629;28;19915;-77
2022/08/17 07:20:41;;;;;;;;;;;25.90;99.90;;;;;;5071908;28;19995;-76
2022/08/17 07:23:32;;;;;;;;;;;25.90;99.90;;;;;;5071713;28;19916;-78
2022/08/17 07:26:05;;;;;;;;;;;25.90;99.90;;;;;;5072833;28;20355;-78
2022/08/17 07:28:32;;;;;;;;;;;26.00;99.90;;;;;;5072508;28;20324;-77
2022/08/17 07:30:57;;;;;;;;;;;26.00;99.90;;;;;;5072460;28;20268;-78
2022/08/17 07:33:24;;;;;;;;;;;26.00;99.90;;;;;;5071988;28;19920;-76
2022/08/17 07:35:50;;;;;;;;;;;25.70;99.90;;;;;;5072942;28;19954;-77
2022/08/17 07:38:24;;;;;;;;;;;25.70;99.90;;;;;;5072265;28;19908;-77
2022/08/17 07:41:03;;;;;;;;;;;25.50;99.90;;;;;;5071882;28;19959;-76
2022/08/17 07:43:38;;;;;;;;;;;25.40;99.90;;;;;;5072128;28;19908;-77
2022/08/17 07:49:06;;;;;;;;;;;25.30;99.90;;;;;;5074308;28;19916;-78
2022/08/17 07:51:41;;;;;;;;;;;25.40;99.90;;;;;;5074157;28;19955;-77
2022/08/17 07:54:22;;;;;;;;;;;25.40;99.90;;;;;;5076023;28;19913;-76
2022/08/17 07:56:49;;;;;;;;;;;25.60;99.90;;;;;;5076104;28;19947;-78
2022/08/17 07:59:15;;;;;;;;;;;25.60;99.90;;;;;;5075971;28;19966;-77
2022/08/17 08:01:43;;;;;;;;;;;25.80;99.90;;;;;;5075947;28;19908;-77
2022/08/17 08:04:28;;;;;;;;;;;25.90;99.90;;;;;;5075359;28;19972;-79
2022/08/17 08:06:56;;;;;;;;;;;25.90;99.90;;;;;;5076089;28;19909;-79
2022/08/17 08:09:29;;;;;;;;;;;25.90;99.90;;;;;;5075052;28;19909;-80
2022/08/17 08:11:54;;;;;;;;;;;25.90;99.90;;;;;;5076928;28;19912;-77
2022/08/17 08:14:23;;;;;;;;;;;25.70;99.90;;;;;;5073798;28;19919;-79
2022/08/17 08:16:58;;;;;;;;;;;25.60;99.90;;;;;;5073422;28;20281;-78
2022/08/17 08:19:25;;;;;;;;;;;25.50;99.90;;;;;;5079884;28;19912;-78
2022/08/17 08:21:58;;;;;;;;;;;25.40;99.90;;;;;;5092875;28;19912;-79
2022/08/17 08:24:43;;;;;;;;;;;25.20;99.90;;;;;;5089817;28;19912;-79
2022/08/17 08:27:26;;;;;;;;;;;25.10;99.90;;;;;;5100927;28;19961;-78
2022/08/17 08:30:10;;;;;;;;;;;25.00;99.90;;;;;;5084062;28;19915;-79
2022/08/17 08:32:54;;;;;;;;;;;24.90;99.90;;;;;;5089844;28;20313;-78
2022/08/17 08:35:29;;;;;;;;;;;24.80;99.90;;;;;;5089671;28;20394;-78
2022/08/17 08:38:06;;;;;;;;;;;24.80;99.90;;;;;;5089855;28;19935;-78
2022/08/17 08:40:39;;;;;;;;;;;24.80;99.90;;;;;;5089394;28;19912;-79
2022/08/17 08:43:05;;;;;;;;;;;24.70;99.90;;;;;;5073330;28;20342;-78
2022/08/17 08:45:37;;;;;;;;;;;24.80;99.90;;;;;;5072997;28;19954;-78
2022/08/17 08:48:12;;;;;;;;;;;24.80;99.90;;;;;;5072746;28;20338;-78
2022/08/17 08:50:56;;;;;;;;;;;24.90;99.90;;;;;;5072435;28;19912;-78
2022/08/17 08:53:22;;;;;;;;;;;24.90;99.90;;;;;;5072780;28;19912;-77
2022/08/17 08:55:51;;;;;;;;;;;24.90;99.90;;;;;;5086825;28;20023;-78
2022/08/17 08:58:20;;;;;;;;;;;24.90;99.90;;;;;;5123516;27;19908;-78
2022/08/17 09:00:49;;;;;;;;;;;24.80;99.90;;;;;;5084390;28;19953;-79
2022/08/17 09:03:18;;;;;;;;;;;24.90;99.90;;;;;;5092196;28;19943;-78
2022/08/17 09:05:44;;;;;;;;;;;24.90;99.90;;;;;;5092736;28;20369;-78
2022/08/17 09:08:19;;;;;;;;;;;25.00;99.90;;;;;;5092764;28;19952;-78
2022/08/17 09:10:48;;;;;;;;;;;25.10;99.90;;;;;;5092630;28;19912;-78
2022/08/17 09:13:20;;;;;;;;;;;25.20;99.90;;;;;;5094889;28;19912;-78
2022/08/17 09:15:49;;;;;;;;;;;25.30;99.90;;;;;;5101849;28;19919;-78
2022/08/17 09:18:18;;;;;;;;;;;25.40;99.90;;;;;;5092622;28;19912;-78
2022/08/17 09:20:50;;;;;;;;;;;25.40;99.90;;;;;;5092731;28;20364;-78
2022/08/17 09:23:31;;;;;;;;;;;25.40;99.90;;;;;;5087029;28;19916;-78
2022/08/17 09:26:09;;;;;;;;;;;25.40;99.90;;;;;;5083963;28;19915;-78
2022/08/17 09:28:36;;;;;;;;;;;25.40;99.90;;;;;;5092454;28;20331;-78
2022/08/17 09:31:06;;;;;;;;;;;25.40;99.90;;;;;;5092725;28;20279;-77
2022/08/17 09:33:35;;;;;;;;;;;25.40;99.90;;;;;;5092325;28;20394;-78
2022/08/17 09:36:08;;;;;;;;;;;25.40;99.90;;;;;;5083150;28;19915;-78
2022/08/17 09:38:53;;;;;;;;;;;25.30;99.90;;;;;;5125620;27;20449;-78
2022/08/17 09:41:22;;;;;;;;;;;25.10;99.90;;;;;;5092343;28;19957;-78
2022/08/17 09:43:48;;;;;;;;;;;24.90;99.90;;;;;;5092216;28;19995;-78
2022/08/17 09:46:23;;;;;;;;;;;24.80;99.90;;;;;;5091921;28;19966;-78
2022/08/17 09:48:54;;;;;;;;;;;24.90;99.90;;;;;;5092070;28;19908;-78
2022/08/17 09:51:26;;;;;;;;;;;24.80;99.90;;;;;;5092287;28;19995;-79
2022/08/17 09:53:51;;;;;;;;;;;24.40;99.90;;;;;;5091847;28;20058;-78
2022/08/17 09:56:36;;;;;;;;;;;24.30;99.90;;;;;;5091803;28;20010;-78
2022/08/17 09:59:07;;;;;;;;;;;24.30;99.90;;;;;;5091752;28;20430;-78
2022/08/17 10:01:38;;;;;;;;;;;24.20;99.90;;;;;;5091977;28;19977;-78
2022/08/17 10:04:07;;;;;;;;;;;24.00;99.90;;;;;;5090602;28;19912;-78
2022/08/17 10:06:37;;;;;;;;;;;23.70;99.90;;;;;;5092361;28;19909;-79
2022/08/17 10:09:22;;;;;;;;;;;23.70;99.90;;;;;;5091684;28;20371;-79
2022/08/17 10:12:18;;;;;;;;;;;23.70;99.90;;;;;;5091808;28;20018;-78
2022/08/17 10:14:51;;;;;;;;;;;23.80;99.90;;;;;;5089639;28;19916;-78
2022/08/17 10:17:22;;;;;;;;;;;23.70;99.90;;;;;;5095909;28;19913;-78
2022/08/17 10:19:58;;;;;;;;;;;23.40;99.90;;;;;;5091224;28;19914;-78
2022/08/17 10:28:09;;;;;;;;;;;22.60;99.90;;;;;;5110784;28;19919;-77
2022/08/17 10:30:42;;;;;;;;;;;22.40;99.90;;;;;;5111006;28;19916;-78
2022/08/17 10:33:14;;;;;;;;;;;22.40;99.90;;;;;;5111433;28;19916;-78
2022/08/17 10:35:55;;;;;;;;;;;22.50;99.90;;;;;;5111193;28;19908;-78
2022/08/17 10:38:24;;;;;;;;;;;22.60;99.90;;;;;;5111217;28;19907;-78
2022/08/17 10:40:56;;;;;;;;;;;22.60;99.90;;;;;;5111300;28;19959;-78
2022/08/17 10:43:31;;;;;;;;;;;22.80;99.90;;;;;;5111302;28;20010;-77
2022/08/17 10:46:00;;;;;;;;;;;22.90;99.90;;;;;;5111083;28;19961;-78
2022/08/17 10:48:35;;;;;;;;;;;23.00;99.90;;;;;;5111088;28;19911;-78
2022/08/17 10:51:09;;;;;;;;;;;23.10;99.90;;;;;;5111140;28;20022;-78
2022/08/17 10:53:35;;;;;;;;;;;23.30;99.90;;;;;;5111018;28;20196;-77
2022/08/17 10:56:13;;;;;;;;;;;23.40;99.90;;;;;;5110894;28;19908;-77
2022/08/17 10:58:59;;;;;;;;;;;23.70;99.90;;;;;;5111254;28;20373;-77
2022/08/17 11:01:31;;;;;;;;;;;24.00;99.90;;;;;;5111655;28;19923;-78
2022/08/17 11:04:03;;;;;;;;;;;24.40;99.90;;;;;;5111308;28;19907;-78
2022/08/17 11:06:39;;;;;;;;;;;24.60;99.90;;;;;;5105937;28;19912;-78
2022/08/17 11:09:18;;;;;;;;;;;25.00;99.90;;;;;;5099070;28;19912;-77
2022/08/17 11:11:46;;;;;;;;;;;25.20;99.90;;;;;;5079244;28;19918;-78
2022/08/17 11:14:30;;;;;;;;;;;25.60;99.90;;;;;;5120815;28;19978;-77
2022/08/17 11:16:56;;;;;;;;;;;25.90;99.90;;;;;;5069458;28;19920;-78
2022/08/17 11:19:40;;;;;;;;;;;26.10;99.90;;;;;;5090959;28;20372;-78
2022/08/17 11:22:13;;;;;;;;;;;26.20;99.90;;;;;;5093713;28;19908;-78
2022/08/17 11:24:46;;;;;;;;;;;26.40;99.90;;;;;;5110965;28;20367;-78
2022/08/17 11:27:25;;;;;;;;;;;26.50;99.90;;;;;;5112861;28;19908;-77
2022/08/17 11:29:53;;;;;;;;;;;26.60;99.90;;;;;;5114919;28;19919;-79
2022/08/17 11:32:37;;;;;;;;;;;26.70;99.90;;;;;;5115022;28;19994;-79
2022/08/17 11:35:06;;;;;;;;;;;26.60;99.90;;;;;;5115549;28;19907;-78
2022/08/17 11:37:40;;;;;;;;;;;26.80;99.90;;;;;;5107166;28;19996;-78
2022/08/17 11:40:13;;;;;;;;;;;27.00;99.90;;;;;;5098925;28;20286;-79
2022/08/17 11:42:45;;;;;;;;;;;27.20;99.90;;;;;;5074608;28;19908;-78
2022/08/17 11:45:29;;;;;;;;;;;27.20;99.90;;;;;;5074452;28;19913;-78
2022/08/17 11:53:49;;;;;;;;;;;27.50;99.90;;;;;;5075176;28;19920;-78
2022/08/17 11:56:33;;;;;;;;;;;27.40;99.90;;;;;;5073229;28;19908;-79
2022/08/17 11:58:59;;;;;;;;;;;27.60;99.90;;;;;;5073880;28;19908;-80
2022/08/17 12:01:28;;;;;;;;;;;27.80;99.90;;;;;;5073441;28;20356;-79
2022/08/17 12:03:57;;;;;;;;;;;27.90;99.90;;;;;;5074127;28;19923;-79
2022/08/17 12:06:26;;;;;;;;;;;28.00;99.90;;;;;;5084116;28;19918;-78
2022/08/17 12:08:55;;;;;;;;;;;28.10;99.90;;;;;;5086930;28;20322;-77
2022/08/17 12:11:36;;;;;;;;;;;28.20;99.90;;;;;;5073584;28;19908;-79
2022/08/17 12:14:02;;;;;;;;;;;28.20;99.90;;;;;;5073487;28;19963;-78
2022/08/17 12:16:28;;;;;;;;;;;28.20;99.90;;;;;;5073078;28;20321;-78
2022/08/17 12:18:58;;;;;;;;;;;28.30;99.90;;;;;;5073254;28;19915;-79
2022/08/17 12:21:28;;;;;;;;;;;28.30;99.90;;;;;;5073420;28;19916;-77
2022/08/17 12:24:08;;;;;;;;;;;28.30;99.90;;;;;;5073690;28;19912;-79
2022/08/17 12:26:35;;;;;;;;;;;28.10;99.90;;;;;;5073091;28;19912;-78
2022/08/17 12:29:03;;;;;;;;;;;27.90;99.90;;;;;;5073544;28;19944;-77
2022/08/17 12:31:33;;;;;;;;;;;27.90;99.90;;;;;;5072762;28;19916;-78
2022/08/17 12:33:59;;;;;;;;;;;28.10;99.90;;;;;;5073277;28;19912;-78
2022/08/17 12:36:27;;;;;;;;;;;28.30;99.90;;;;;;5073396;28;19976;-78
2022/08/17 12:39:00;;;;;;;;;;;28.30;99.90;;;;;;5072672;28;20380;-78
2022/08/17 12:41:34;;;;;;;;;;;28.40;99.90;;;;;;5073267;28;19909;-77
2022/08/17 12:44:19;;;;;;;;;;;28.40;99.90;;;;;;5073250;28;19916;-78
2022/08/17 12:46:44;;;;;;;;;;;28.40;99.90;;;;;;5072883;28;20003;-78
2022/08/17 12:49:21;;;;;;;;;;;28.10;99.90;;;;;;5073188;28;19970;-78
2022/08/17 12:51:48;;;;;;;;;;;28.00;99.90;;;;;;5072587;28;19912;-78
2022/08/17 12:54:30;;;;;;;;;;;27.70;99.90;;;;;;5072955;28;19935;-79
2022/08/17 12:56:59;;;;;;;;;;;27.70;99.90;;;;;;5089717;28;20360;-79
2022/08/17 12:59:25;;;;;;;;;;;27.70;99.90;;;;;;5090711;28;20287;-79
2022/08/17 13:01:51;;;;;;;;;;;27.80;99.90;;;;;;5088301;28;19908;-78
2022/08/17 13:04:17;;;;;;;;;;;28.10;99.90;;;;;;5095270;28;20014;-76
2022/08/17 13:06:50;;;;;;;;;;;28.20;99.90;;;;;;5092155;28;19915;-78
2022/08/17 13:09:28;;;;;;;;;;;28.40;99.90;;;;;;5086237;28;19935;-79
2022/08/17 13:11:58;;;;;;;;;;;28.60;99.90;;;;;;5092311;28;19919;-79
2022/08/17 13:14:27;;;;;;;;;;;28.60;99.90;;;;;;5100381;28;19916;-78
2022/08/17 13:17:00;;;;;;;;;;;28.40;99.90;;;;;;5092178;28;19916;-78
2022/08/17 13:19:28;;;;;;;;;;;28.30;99.90;;;;;;5092378;28;19908;-78
2022/08/17 13:21:55;;;;;;;;;;;28.10;99.90;;;;;;5092006;28;19996;-78
2022/08/17 13:24:25;;;;;;;;;;;28.20;99.90;;;;;;5084375;28;19915;-78
2022/08/17 13:26:53;;;;;;;;;;;28.30;99.90;;;;;;5084840;28;19919;-78
2022/08/17 13:29:31;;;;;;;;;;;28.50;99.90;;;;;;5091192;28;19920;-77
2022/08/17 13:32:02;;;;;;;;;;;28.80;99.90;;;;;;5071181;28;19924;-79
2022/08/17 13:34:28;;;;;;;;;;;28.90;99.90;;;;;;5072410;28;19912;-78
2022/08/17 13:37:15;;;;;;;;;;;29.00;99.90;;;;;;5071481;28;20006;-77
2022/08/17 13:39:41;;;;;;;;;;;29.10;99.90;;;;;;5071966;28;19912;-78
2022/08/17 13:42:26;;;;;;;;;;;29.40;99.90;;;;;;5071384;28;19954;-78
2022/08/17 13:44:52;;;;;;;;;;;29.40;99.90;;;;;;5071702;28;19908;-78
2022/08/17 13:47:18;;;;;;;;;;;29.20;99.90;;;;;;5071513;28;19909;-78
2022/08/17 13:49:47;;;;;;;;;;;29.50;99.90;;;;;;5072004;28;19919;-76
2022/08/17 13:52:30;;;;;;;;;;;29.60;99.90;;;;;;5073031;28;19916;-78
2022/08/17 13:54:57;;;;;;;;;;;29.60;99.90;;;;;;5073363;28;19938;-77
2022/08/17 13:57:23;;;;;;;;;;;29.40;99.90;;;;;;5072380;28;19940;-78
2022/08/17 13:59:51;;;;;;;;;;;29.40;99.90;;;;;;5072731;28;20340;-77
2022/08/17 14:02:17;;;;;;;;;;;29.20;99.90;;;;;;5073303;28;19912;-77
2022/08/17 14:04:44;;;;;;;;;;;29.00;99.90;;;;;;5072647;28;20031;-79
2022/08/17 14:07:11;;;;;;;;;;;28.80;99.90;;;;;;5072702;28;20008;-78
2022/08/17 14:09:57;;;;;;;;;;;28.70;99.90;;;;;;5071875;28;19915;-79
2022/08/17 14:12:24;;;;;;;;;;;28.60;99.90;;;;;;5081650;28;19912;-77
2022/08/17 14:14:50;;;;;;;;;;;28.50;99.90;;;;;;5078445;28;19931;-76
2022/08/17 14:17:16;;;;;;;;;;;28.50;99.90;;;;;;5072096;28;19908;-77
2022/08/17 14:19:42;;;;;;;;;;;28.40;99.90;;;;;;5072073;28;19962;-79
2022/08/17 14:22:13;;;;;;;;;;;28.40;99.90;;;;;;5071783;28;19913;-78
2022/08/17 14:24:41;;;;;;;;;;;28.40;99.90;;;;;;5072582;28;20383;-78
2022/08/17 14:27:10;;;;;;;;;;;28.30;99.90;;;;;;5071813;28;20034;-78
2022/08/17 14:29:36;;;;;;;;;;;28.20;99.90;;;;;;5072434;28;20302;-78
2022/08/17 14:32:05;;;;;;;;;;;28.00;99.90;;;;;;5071551;28;19924;-78
2022/08/17 14:34:31;;;;;;;;;;;27.90;99.90;;;;;;5071389;28;19916;-76
2022/08/17 14:36:57;;;;;;;;;;;27.80;99.90;;;;;;5071012;28;19962;-78
2022/08/17 14:39:23;;;;;;;;;;;27.80;99.90;;;;;;5071250;28;20330;-79
2022/08/17 14:41:48;;;;;;;;;;;27.70;99.90;;;;;;5071766;28;19932;-78
2022/08/17 14:44:14;;;;;;;;;;;27.70;99.90;;;;;;5071517;28;19923;-79
2022/08/17 14:46:40;;;;;;;;;;;27.60;99.90;;;;;;5071240;28;19909;-79
2022/08/17 14:49:10;;;;;;;;;;;27.50;99.90;;;;;;5070927;28;20338;-80
2022/08/17 14:51:37;;;;;;;;;;;27.70;99.90;;;;;;5070810;28;19915;-79
2022/08/17 14:54:03;;;;;;;;;;;27.70;99.90;;;;;;5075793;28;19999;-79
2022/08/17 14:56:29;;;;;;;;;;;27.80;99.90;;;;;;5090876;28;19976;-79
2022/08/17 14:58:54;;;;;;;;;;;28.00;99.90;;;;;;5091440;28;19947;-79
2022/08/17 15:01:20;;;;;;;;;;;28.50;99.90;;;;;;5090436;28;19946;-78